sensor_id;sensor_type;location;lat;lon;timestamp;pressure;altitude;pressure_sealevel;temperature;humidity
25638;BME280;13496;51.040;13.680;2022-11-25T00:02:03;99760.00;;;17.13;54.33
25638;BME280;13496;51.040;13.680;2022-11-25T00:07:04;99753.78;;;17.14;54.18
25638;BME280;13496;51.040;13.680;2022-11-25T00:12:06;99751.16;;;17.14;54.36
25638;BME280;13496;51.040;13.680;2022-11-25T00:17:08;99748.53;;;17.14;54.28
25638;BME280;13496;51.040;13.680;2022-11-25T00:22:10;99750.16;;;17.15;54.17
25638;BME280;13496;51.040;13.680;2022-11-25T00:27:11;99750.81;;;17.17;54.25
25638;BME280;13496;51.040;13.680;2022-11-25T00:32:13;99749.97;;;17.16;54.03
25638;BME280;13496;51.040;13.680;2022-11-25T00:37:15;99748.53;;;17.14;54.21
25638;BME280;13496;51.040;13.680;2022-11-25T00:42:16;99755.59;;;17.13;54.28
25638;BME280;13496;51.040;13.680;2022-11-25T00:47:37;99757.56;;;17.11;54.41
25638;BME280;13496;51.040;13.680;2022-11-25T00:52:38;99764.44;;;17.12;54.34
25638;BME280;13496;51.040;13.680;2022-11-25T00:57:40;99758.22;;;17.13;54.28
25638;BME280;13496;51.040;13.680;2022-11-25T01:02:42;99759.84;;;17.14;54.09
25638;BME280;13496;51.040;13.680;2022-11-25T01:07:47;99756.41;;;17.14;54.29
25638;BME280;13496;51.040;13.680;2022-11-25T01:12:49;99757.03;;;17.16;54.20
25638;BME280;13496;51.040;13.680;2022-11-25T01:17:51;99758.03;;;17.15;54.04
25638;BME280;13496;51.040;13.680;2022-11-25T01:22:53;99753.94;;;17.12;54.20
25638;BME280;13496;51.040;13.680;2022-11-25T01:27:54;99758.84;;;17.15;53.98
25638;BME280;13496;51.040;13.680;2022-11-25T01:32:56;99754.41;;;17.16;54.14
25638;BME280;13496;51.040;13.680;2022-11-25T01:37:58;99750.16;;;17.15;54.01
25638;BME280;13496;51.040;13.680;2022-11-25T01:43:00;99751.78;;;17.16;54.06
25638;BME280;13496;51.040;13.680;2022-11-25T01:48:09;99751.78;;;17.16;54.20
25638;BME280;13496;51.040;13.680;2022-11-25T01:53:12;99749.16;;;17.16;54.01
25638;BME280;13496;51.040;13.680;2022-11-25T01:58:20;99756.22;;;17.15;53.87
25638;BME280;13496;51.040;13.680;2022-11-25T02:03:36;99758.22;;;17.13;53.89
25638;BME280;13496;51.040;13.680;2022-11-25T02:08:39;99754.59;;;17.14;54.12
25638;BME280;13496;51.040;13.680;2022-11-25T02:13:43;99754.41;;;17.16;53.94
25638;BME280;13496;51.040;13.680;2022-11-25T02:18:48;99754.41;;;17.16;53.97
25638;BME280;13496;51.040;13.680;2022-11-25T02:28:55;99755.22;;;17.16;54.00
25638;BME280;13496;51.040;13.680;2022-11-25T02:33:57;99742.31;;;17.15;54.12
25638;BME280;13496;51.040;13.680;2022-11-25T02:38:59;99746.38;;;17.17;53.98
25638;BME280;13496;51.040;13.680;2022-11-25T02:44:05;99746.75;;;17.14;54.12
25638;BME280;13496;51.040;13.680;2022-11-25T02:49:07;99749.16;;;17.16;53.84
25638;BME280;13496;51.040;13.680;2022-11-25T02:54:10;99743.91;;;17.16;54.03
25638;BME280;13496;51.040;13.680;2022-11-25T02:59:12;99743.91;;;17.16;53.63
25638;BME280;13496;51.040;13.680;2022-11-25T03:04:14;99737.72;;;17.17;53.94
25638;BME280;13496;51.040;13.680;2022-11-25T03:09:16;99750.16;;;17.15;53.77
25638;BME280;13496;51.040;13.680;2022-11-25T03:14:18;99745.94;;;17.14;53.85
25638;BME280;13496;51.040;13.680;2022-11-25T03:19:19;99749.53;;;17.13;53.83
25638;BME280;13496;51.040;13.680;2022-11-25T03:24:21;99746.91;;;17.13;53.83
25638;BME280;13496;51.040;13.680;2022-11-25T03:29:24;99747.53;;;17.15;54.01
25638;BME280;13496;51.040;13.680;2022-11-25T03:34:26;99750.16;;;17.15;53.94
25638;BME280;13496;51.040;13.680;2022-11-25T03:39:28;99749.16;;;17.16;53.80
25638;BME280;13496;51.040;13.680;2022-11-25T03:44:30;99761.66;;;17.14;53.84
25638;BME280;13496;51.040;13.680;2022-11-25T03:49:32;99762.00;;;17.11;53.89
25638;BME280;13496;51.040;13.680;2022-11-25T03:54:33;99754.75;;;17.13;53.74
25638;BME280;13496;51.040;13.680;2022-11-25T03:59:50;99760.00;;;17.13;53.80
25638;BME280;13496;51.040;13.680;2022-11-25T04:04:53;99769.69;;;17.12;53.89
25638;BME280;13496;51.040;13.680;2022-11-25T04:09:55;99767.06;;;17.12;53.87
25638;BME280;13496;51.040;13.680;2022-11-25T04:15:00;99771.84;;;17.09;53.75
25638;BME280;13496;51.040;13.680;2022-11-25T04:20:03;99772.03;;;17.07;54.16
25638;BME280;13496;51.040;13.680;2022-11-25T04:25:06;99777.09;;;17.09;53.89
25638;BME280;13496;51.040;13.680;2022-11-25T04:30:08;99781.72;;;17.07;54.44
25638;BME280;13496;51.040;13.680;2022-11-25T04:35:13;99779.09;;;17.07;54.21
25638;BME280;13496;51.040;13.680;2022-11-25T04:40:19;99781.06;;;17.05;54.42
25638;BME280;13496;51.040;13.680;2022-11-25T04:45:28;99780.69;;;17.08;54.29
25638;BME280;13496;51.040;13.680;2022-11-25T04:50:31;99785.94;;;17.08;54.50
25638;BME280;13496;51.040;13.680;2022-11-25T04:55:43;99782.16;;;17.10;54.60
25638;BME280;13496;51.040;13.680;2022-11-25T05:00:49;99785.31;;;17.06;54.27
25638;BME280;13496;51.040;13.680;2022-11-25T05:05:53;99781.34;;;17.10;54.23
25638;BME280;13496;51.040;13.680;2022-11-25T05:10:57;99777.72;;;17.11;54.33
25638;BME280;13496;51.040;13.680;2022-11-25T05:15:59;99779.34;;;17.12;54.19
25638;BME280;13496;51.040;13.680;2022-11-25T05:21:03;99773.75;;;17.15;54.38
25638;BME280;13496;51.040;13.680;2022-11-25T05:26:09;99777.38;;;17.14;54.10
25638;BME280;13496;51.040;13.680;2022-11-25T05:31:15;99777.38;;;17.14;54.17
25638;BME280;13496;51.040;13.680;2022-11-25T05:36:18;99774.13;;;17.12;54.40
25638;BME280;13496;51.040;13.680;2022-11-25T05:41:22;99774.22;;;17.18;54.19
25638;BME280;13496;51.040;13.680;2022-11-25T05:46:27;99779.94;;;17.22;54.10
25638;BME280;13496;51.040;13.680;2022-11-25T05:51:31;99791.34;;;17.29;53.94
25638;BME280;13496;51.040;13.680;2022-11-25T05:56:36;99788.88;;;17.28;54.00
25638;BME280;13496;51.040;13.680;2022-11-25T06:01:57;99789.72;;;17.28;53.71
25638;BME280;13496;51.040;13.680;2022-11-25T06:06:59;99792.34;;;17.28;53.69
25638;BME280;13496;51.040;13.680;2022-11-25T06:12:01;99788.34;;;17.32;53.55
25638;BME280;13496;51.040;13.680;2022-11-25T06:17:03;99800.66;;;17.32;53.76
25638;BME280;13496;51.040;13.680;2022-11-25T06:22:14;99802.38;;;17.39;53.56
25638;BME280;13496;51.040;13.680;2022-11-25T06:27:15;99813.84;;;17.38;53.79
25638;BME280;13496;51.040;13.680;2022-11-25T06:32:17;99817.28;;;17.39;53.40
25638;BME280;13496;51.040;13.680;2022-11-25T06:37:28;99812.03;;;17.39;53.29
25638;BME280;13496;51.040;13.680;2022-11-25T06:42:29;99822.03;;;17.44;53.08
25638;BME280;13496;51.040;13.680;2022-11-25T06:47:31;99825.81;;;17.41;53.30
25638;BME280;13496;51.040;13.680;2022-11-25T06:52:33;99831.03;;;17.41;53.03
25638;BME280;13496;51.040;13.680;2022-11-25T06:57:34;99837.91;;;17.42;53.16
25638;BME280;13496;51.040;13.680;2022-11-25T07:02:36;99843.63;;;17.46;52.68
25638;BME280;13496;51.040;13.680;2022-11-25T07:07:38;99834.41;;;17.50;52.65
25638;BME280;13496;51.040;13.680;2022-11-25T07:12:39;99845.28;;;17.47;52.57
25638;BME280;13496;51.040;13.680;2022-11-25T07:17:41;99858.66;;;17.52;52.45
25638;BME280;13496;51.040;13.680;2022-11-25T07:22:43;99859.00;;;17.49;52.60
25638;BME280;13496;51.040;13.680;2022-11-25T07:27:44;99859.00;;;17.49;52.30
25638;BME280;13496;51.040;13.680;2022-11-25T07:32:46;99864.91;;;17.51;52.46
25638;BME280;13496;51.040;13.680;2022-11-25T07:37:48;99867.16;;;17.54;52.26
25638;BME280;13496;51.040;13.680;2022-11-25T07:42:49;99859.94;;;17.71;51.79
25638;BME280;13496;51.040;13.680;2022-11-25T07:47:51;99869.50;;;18.01;51.24
25638;BME280;13496;51.040;13.680;2022-11-25T07:52:53;99859.88;;;18.23;50.91
25638;BME280;13496;51.040;13.680;2022-11-25T07:57:54;99866.00;;;18.45;50.49
25638;BME280;13496;51.040;13.680;2022-11-25T08:02:56;99867.88;;;18.66;49.80
25638;BME280;13496;51.040;13.680;2022-11-25T08:07:58;99863.66;;;18.86;49.38
25638;BME280;13496;51.040;13.680;2022-11-25T08:12:59;99861.75;;;18.95;49.36
25638;BME280;13496;51.040;13.680;2022-11-25T08:18:02;99865.34;;;19.16;48.94
25638;BME280;13496;51.040;13.680;2022-11-25T08:23:04;99864.16;;;19.40;48.45
25638;BME280;13496;51.040;13.680;2022-11-25T08:28:06;99862.72;;;19.65;47.67
25638;BME280;13496;51.040;13.680;2022-11-25T08:33:08;99870.94;;;19.55;47.99
25638;BME280;13496;51.040;13.680;2022-11-25T08:38:10;99875.00;;;19.30;48.13
25638;BME280;13496;51.040;13.680;2022-11-25T08:43:12;99877.94;;;19.20;48.24
25638;BME280;13496;51.040;13.680;2022-11-25T08:48:15;99886.53;;;19.07;48.71
25638;BME280;13496;51.040;13.680;2022-11-25T08:53:19;99883.97;;;18.93;48.85
25638;BME280;13496;51.040;13.680;2022-11-25T08:58:21;99886.25;;;18.81;49.30
25638;BME280;13496;51.040;13.680;2022-11-25T09:03:22;99875.03;;;18.72;49.39
25638;BME280;13496;51.040;13.680;2022-11-25T09:08:24;99880.66;;;18.69;49.52
25638;BME280;13496;51.040;13.680;2022-11-25T09:13:26;99886.06;;;18.68;49.76
25638;BME280;13496;51.040;13.680;2022-11-25T09:18:28;99888.25;;;18.64;49.84
25638;BME280;13496;51.040;13.680;2022-11-25T09:23:30;99874.69;;;18.60;49.83
25638;BME280;13496;51.040;13.680;2022-11-25T09:28:33;99876.31;;;18.61;49.57
25638;BME280;13496;51.040;13.680;2022-11-25T09:33:35;99876.13;;;18.63;49.81
25638;BME280;13496;51.040;13.680;2022-11-25T09:38:37;99883.00;;;18.64;49.96
25638;BME280;13496;51.040;13.680;2022-11-25T09:43:58;99880.13;;;18.59;49.97
25638;BME280;13496;51.040;13.680;2022-11-25T09:54:37;99884.00;;;18.63;50.26
25638;BME280;13496;51.040;13.680;2022-11-25T09:59:49;99881.28;;;18.71;49.85
25638;BME280;13496;51.040;13.680;2022-11-25T10:05:01;99884.81;;;18.78;49.58
25638;BME280;13496;51.040;13.680;2022-11-25T10:10:04;99885.06;;;18.83;49.93
25638;BME280;13496;51.040;13.680;2022-11-25T10:15:47;99873.00;;;18.89;49.75
25638;BME280;13496;51.040;13.680;2022-11-25T10:20:41;99887.59;;;18.92;49.79
25638;BME280;13496;51.040;13.680;2022-11-25T10:25:45;99879.94;;;18.97;49.78
25638;BME280;13496;51.040;13.680;2022-11-25T10:30:58;99880.19;;;19.02;49.61
25638;BME280;13496;51.040;13.680;2022-11-25T10:36:14;99874.56;;;19.05;49.50
25638;BME280;13496;51.040;13.680;2022-11-25T10:41:20;99867.69;;;19.04;49.22
25638;BME280;13496;51.040;13.680;2022-11-25T10:46:39;99874.19;;;19.08;49.27
25638;BME280;13496;51.040;13.680;2022-11-25T10:51:49;99864.31;;;19.10;49.00
25638;BME280;13496;51.040;13.680;2022-11-25T10:56:56;99863.91;;;19.13;49.45
25638;BME280;13496;51.040;13.680;2022-11-25T11:02:20;99867.91;;;19.09;49.16
25638;BME280;13496;51.040;13.680;2022-11-25T11:07:27;99859.84;;;19.10;49.54
25638;BME280;13496;51.040;13.680;2022-11-25T11:12:29;99861.09;;;19.15;49.42
25638;BME280;13496;51.040;13.680;2022-11-25T11:17:34;99854.22;;;19.14;49.39
25638;BME280;13496;51.040;13.680;2022-11-25T11:22:45;99852.56;;;19.13;49.49
25638;BME280;13496;51.040;13.680;2022-11-25T11:27:47;99845.25;;;19.08;49.18
25638;BME280;13496;51.040;13.680;2022-11-25T11:32:56;99842.03;;;19.06;49.28
25638;BME280;13496;51.040;13.680;2022-11-25T11:38:06;99836.94;;;19.04;49.62
25638;BME280;13496;51.040;13.680;2022-11-25T11:43:29;99839.13;;;19.01;49.97
25638;BME280;13496;51.040;13.680;2022-11-25T11:48:39;99847.03;;;19.01;49.57
25638;BME280;13496;51.040;13.680;2022-11-25T11:53:56;99842.41;;;19.03;49.97
25638;BME280;13496;51.040;13.680;2022-11-25T11:59:29;99834.88;;;19.00;49.99
25638;BME280;13496;51.040;13.680;2022-11-25T12:09:50;99837.06;;;18.96;50.18
25638;BME280;13496;51.040;13.680;2022-11-25T12:15:01;99837.06;;;18.96;50.12
25638;BME280;13496;51.040;13.680;2022-11-25T12:25:36;99836.13;;;19.04;49.65
25638;BME280;13496;51.040;13.680;2022-11-25T12:36:26;99818.72;;;19.03;49.94
25638;BME280;13496;51.040;13.680;2022-11-25T12:41:44;99818.91;;;19.01;49.71
25638;BME280;13496;51.040;13.680;2022-11-25T12:46:55;99820.13;;;18.99;49.93
25638;BME280;13496;51.040;13.680;2022-11-25T13:13:20;99834.63;;;18.95;49.65
25638;BME280;13496;51.040;13.680;2022-11-25T13:18:28;99839.06;;;18.94;49.72
25638;BME280;13496;51.040;13.680;2022-11-25T13:23:43;99854.03;;;18.94;49.85
25638;BME280;13496;51.040;13.680;2022-11-25T13:28:46;99845.53;;;18.92;50.00
25638;BME280;13496;51.040;13.680;2022-11-25T13:43:58;99858.22;;;18.88;49.95
25638;BME280;13496;51.040;13.680;2022-11-25T13:49:01;99855.78;;;18.86;49.90
25638;BME280;13496;51.040;13.680;2022-11-25T13:54:04;99866.66;;;18.83;50.20
25638;BME280;13496;51.040;13.680;2022-11-25T14:04:15;99870.50;;;18.81;49.96
25638;BME280;13496;51.040;13.680;2022-11-25T14:14:51;99868.69;;;18.81;49.95
25638;BME280;13496;51.040;13.680;2022-11-25T14:25:26;99891.06;;;18.77;50.04
25638;BME280;13496;51.040;13.680;2022-11-25T14:30:31;99898.97;;;18.77;50.32
25638;BME280;13496;51.040;13.680;2022-11-25T14:35:43;99899.13;;;18.76;50.02
25638;BME280;13496;51.040;13.680;2022-11-25T14:40:56;99910.28;;;18.78;50.08
25638;BME280;13496;51.040;13.680;2022-11-25T14:46:18;99917.53;;;18.76;50.14
25638;BME280;13496;51.040;13.680;2022-11-25T14:51:23;99926.44;;;18.75;49.98
25638;BME280;13496;51.040;13.680;2022-11-25T14:56:28;99928.03;;;18.76;50.06
25638;BME280;13496;51.040;13.680;2022-11-25T15:01:32;99933.69;;;18.73;50.06
25638;BME280;13496;51.040;13.680;2022-11-25T15:06:37;99932.22;;;18.70;50.06
25638;BME280;13496;51.040;13.680;2022-11-25T15:11:39;99926.16;;;18.70;50.10
25638;BME280;13496;51.040;13.680;2022-11-25T15:16:41;99936.66;;;18.70;50.19
25638;BME280;13496;51.040;13.680;2022-11-25T15:21:44;99938.63;;;18.68;50.12
25638;BME280;13496;51.040;13.680;2022-11-25T15:26:53;99940.09;;;18.70;50.10
25638;BME280;13496;51.040;13.680;2022-11-25T15:31:55;99949.16;;;18.68;50.27
25638;BME280;13496;51.040;13.680;2022-11-25T15:37:01;99973.81;;;18.67;50.12
25638;BME280;13496;51.040;13.680;2022-11-25T15:42:17;99978.25;;;18.66;49.77
25638;BME280;13496;51.040;13.680;2022-11-25T15:47:27;99979.06;;;18.67;49.85
25638;BME280;13496;51.040;13.680;2022-11-25T15:52:38;99973.44;;;18.70;50.01
25638;BME280;13496;51.040;13.680;2022-11-25T15:57:41;99977.06;;;18.69;49.89
25638;BME280;13496;51.040;13.680;2022-11-25T16:18:17;100000.91;;;18.67;49.75
25638;BME280;13496;51.040;13.680;2022-11-25T16:23:21;100007.34;;;18.65;49.95
25638;BME280;13496;51.040;13.680;2022-11-25T16:28:23;100009.59;;;18.68;49.73
25638;BME280;13496;51.040;13.680;2022-11-25T16:33:26;100002.91;;;18.65;49.81
25638;BME280;13496;51.040;13.680;2022-11-25T16:38:27;100009.16;;;18.64;49.70
25638;BME280;13496;51.040;13.680;2022-11-25T16:43:29;100009.16;;;18.64;49.86
25638;BME280;13496;51.040;13.680;2022-11-25T16:48:31;100009.69;;;18.59;49.71
25638;BME280;13496;51.040;13.680;2022-11-25T16:53:32;100007.72;;;18.61;49.84
25638;BME280;13496;51.040;13.680;2022-11-25T16:58:34;100015.41;;;18.63;49.95
25638;BME280;13496;51.040;13.680;2022-11-25T17:03:36;100011.97;;;18.62;49.75
25638;BME280;13496;51.040;13.680;2022-11-25T17:08:37;100017.38;;;18.61;49.73
25638;BME280;13496;51.040;13.680;2022-11-25T17:13:41;100011.97;;;18.62;49.63
25638;BME280;13496;51.040;13.680;2022-11-25T17:18:44;100014.75;;;18.61;49.57
25638;BME280;13496;51.040;13.680;2022-11-25T17:23:45;100021.47;;;18.63;49.79
25638;BME280;13496;51.040;13.680;2022-11-25T17:28:58;100025.91;;;18.63;49.58
25638;BME280;13496;51.040;13.680;2022-11-25T17:34:00;100028.75;;;18.61;49.56
25638;BME280;13496;51.040;13.680;2022-11-25T17:39:02;100037.44;;;18.62;49.60
25638;BME280;13496;51.040;13.680;2022-11-25T17:44:04;100050.56;;;18.62;50.10
25638;BME280;13496;51.040;13.680;2022-11-25T17:49:12;100044.50;;;18.61;50.10
25638;BME280;13496;51.040;13.680;2022-11-25T17:54:14;100055.66;;;18.63;50.02
25638;BME280;13496;51.040;13.680;2022-11-25T17:59:23;100058.28;;;18.63;49.97
25638;BME280;13496;51.040;13.680;2022-11-25T18:04:30;100060.91;;;18.63;50.46
25638;BME280;13496;51.040;13.680;2022-11-25T18:09:32;100061.72;;;18.64;50.57
25638;BME280;13496;51.040;13.680;2022-11-25T18:14:34;100067.25;;;18.69;50.42
25638;BME280;13496;51.040;13.680;2022-11-25T18:19:38;100069.03;;;18.69;50.48
25638;BME280;13496;51.040;13.680;2022-11-25T18:24:40;100074.13;;;18.70;50.63
25638;BME280;13496;51.040;13.680;2022-11-25T18:29:42;100079.94;;;18.66;50.72
25638;BME280;13496;51.040;13.680;2022-11-25T18:34:44;100087.94;;;18.72;50.77
25638;BME280;13496;51.040;13.680;2022-11-25T18:39:45;100085.50;;;18.71;50.72
25638;BME280;13496;51.040;13.680;2022-11-25T18:44:48;100086.47;;;18.70;50.99
25638;BME280;13496;51.040;13.680;2022-11-25T18:49:50;100100.44;;;18.70;51.04
25638;BME280;13496;51.040;13.680;2022-11-25T18:54:52;100101.72;;;18.74;51.08
25638;BME280;13496;51.040;13.680;2022-11-25T18:59:54;100101.38;;;18.77;51.30
25638;BME280;13496;51.040;13.680;2022-11-25T19:04:55;100112.25;;;18.74;51.29
25638;BME280;13496;51.040;13.680;2022-11-25T19:09:59;100119.94;;;18.76;51.25
25638;BME280;13496;51.040;13.680;2022-11-25T19:15:00;100120.78;;;18.76;51.43
25638;BME280;13496;51.040;13.680;2022-11-25T19:20:11;100127.81;;;18.76;51.31
25638;BME280;13496;51.040;13.680;2022-11-25T19:25:14;100132.47;;;18.74;51.56
25638;BME280;13496;51.040;13.680;2022-11-25T19:30:22;100138.38;;;18.68;51.71
25638;BME280;13496;51.040;13.680;2022-11-25T19:35:37;100144.13;;;18.71;51.79
25638;BME280;13496;51.040;13.680;2022-11-25T19:40:38;100153.00;;;18.70;52.29
25638;BME280;13496;51.040;13.680;2022-11-25T19:45:41;100159.91;;;18.71;52.07
25638;BME280;13496;51.040;13.680;2022-11-25T19:50:45;100167.25;;;18.76;52.09
25638;BME280;13496;51.040;13.680;2022-11-25T19:55:48;100168.59;;;18.72;52.08
25638;BME280;13496;51.040;13.680;2022-11-25T20:00:50;100166.63;;;18.74;52.19
25638;BME280;13496;51.040;13.680;2022-11-25T20:05:52;100180.59;;;18.74;51.99
25638;BME280;13496;51.040;13.680;2022-11-25T20:10:55;100179.81;;;18.66;52.21
25638;BME280;13496;51.040;13.680;2022-11-25T20:15:57;100192.97;;;18.66;51.99
25638;BME280;13496;51.040;13.680;2022-11-25T20:21:02;100194.66;;;18.58;52.19
25638;BME280;13496;51.040;13.680;2022-11-25T20:26:05;100209.97;;;18.55;52.06
25638;BME280;13496;51.040;13.680;2022-11-25T20:31:09;100213.41;;;18.55;52.42
25638;BME280;13496;51.040;13.680;2022-11-25T20:36:14;100225.41;;;18.50;52.57
25638;BME280;13496;51.040;13.680;2022-11-25T20:41:17;100224.78;;;18.48;52.20
25638;BME280;13496;51.040;13.680;2022-11-25T20:46:22;100235.19;;;18.41;52.60
25638;BME280;13496;51.040;13.680;2022-11-25T20:51:24;100239.63;;;18.41;52.72
25638;BME280;13496;51.040;13.680;2022-11-25T20:56:26;100242.25;;;18.41;52.59
25638;BME280;13496;51.040;13.680;2022-11-25T21:01:28;100247.38;;;18.34;52.65
25638;BME280;13496;51.040;13.680;2022-11-25T21:06:31;100250.19;;;18.32;52.76
25638;BME280;13496;51.040;13.680;2022-11-25T21:11:34;100264.13;;;18.33;52.40
25638;BME280;13496;51.040;13.680;2022-11-25T21:16:36;100265.94;;;18.32;52.49
25638;BME280;13496;51.040;13.680;2022-11-25T21:21:42;100272.03;;;18.33;52.60
25638;BME280;13496;51.040;13.680;2022-11-25T21:26:44;100274.00;;;18.31;52.68
25638;BME280;13496;51.040;13.680;2022-11-25T21:31:46;100275.50;;;18.25;52.14
25638;BME280;13496;51.040;13.680;2022-11-25T21:36:50;100285.22;;;18.25;52.80
25638;BME280;13496;51.040;13.680;2022-11-25T21:41:53;100287.16;;;18.23;52.67
25638;BME280;13496;51.040;13.680;2022-11-25T21:46:54;100289.97;;;18.21;52.84
25638;BME280;13496;51.040;13.680;2022-11-25T21:51:56;100294.88;;;18.24;52.84
25638;BME280;13496;51.040;13.680;2022-11-25T21:56:58;100300.31;;;18.23;52.83
25638;BME280;13496;51.040;13.680;2022-11-25T22:01:59;100308.38;;;18.21;52.89
25638;BME280;13496;51.040;13.680;2022-11-25T22:07:01;100309.34;;;18.20;53.01
25638;BME280;13496;51.040;13.680;2022-11-25T22:12:03;100314.44;;;18.22;53.14
25638;BME280;13496;51.040;13.680;2022-11-25T22:17:11;100319.84;;;18.20;52.81
25638;BME280;13496;51.040;13.680;2022-11-25T22:22:15;100322.84;;;18.17;53.03
25638;BME280;13496;51.040;13.680;2022-11-25T22:27:21;100325.94;;;18.21;53.05
25638;BME280;13496;51.040;13.680;2022-11-25T22:32:24;100333.34;;;18.17;53.13
25638;BME280;13496;51.040;13.680;2022-11-25T22:37:26;100339.41;;;18.18;53.00
25638;BME280;13496;51.040;13.680;2022-11-25T22:42:29;100341.38;;;18.16;53.10
25638;BME280;13496;51.040;13.680;2022-11-25T22:52:39;100355.31;;;18.16;52.47
25638;BME280;13496;51.040;13.680;2022-11-25T22:57:41;100355.66;;;18.13;53.13
25638;BME280;13496;51.040;13.680;2022-11-25T23:02:43;100361.28;;;18.10;53.11
25638;BME280;13496;51.040;13.680;2022-11-25T23:07:44;100361.91;;;18.12;52.70
25638;BME280;13496;51.040;13.680;2022-11-25T23:12:46;100367.50;;;18.09;52.83
25638;BME280;13496;51.040;13.680;2022-11-25T23:17:56;100375.69;;;18.14;52.80
25638;BME280;13496;51.040;13.680;2022-11-25T23:23:13;100371.78;;;18.10;53.03
25638;BME280;13496;51.040;13.680;2022-11-25T23:28:15;100370.78;;;18.11;52.84
25638;BME280;13496;51.040;13.680;2022-11-25T23:38:23;100375.88;;;18.04;52.67
25638;BME280;13496;51.040;13.680;2022-11-25T23:43:26;100377.69;;;18.04;52.79
25638;BME280;13496;51.040;13.680;2022-11-25T23:48:28;100386.56;;;18.03;52.90
25638;BME280;13496;51.040;13.680;2022-11-25T23:53:32;100390.16;;;18.02;52.69
25638;BME280;13496;51.040;13.680;2022-11-25T23:58:35;100402.94;;;18.05;52.61
